createdAt,value
2018-04-15T00:01:35.315Z,158.37
2018-04-15T00:04:02.802Z,143.60
2018-04-15T00:06:30.336Z,148.17
2018-04-15T00:08:57.833Z,158.27
2018-04-15T00:11:25.345Z,158.33
2018-04-15T00:13:52.837Z,152.77
2018-04-15T00:16:20.328Z,152.50
2018-04-15T00:18:47.833Z,139.70
2018-04-15T00:21:15.375Z,147.30
2018-04-15T00:23:42.974Z,148.77
2018-04-15T00:26:10.444Z,147.80
2018-04-15T00:28:37.929Z,153.40
2018-04-15T00:31:05.428Z,147.70
2018-04-15T00:33:32.946Z,159.80
2018-04-15T00:36:00.474Z,193.57
2018-04-15T00:38:27.946Z,190.03
2018-04-15T00:40:55.455Z,211.30
2018-04-15T00:43:23.025Z,223.83
2018-04-15T00:45:50.520Z,213.00
2018-04-15T00:48:17.996Z,222.37
2018-04-15T00:50:45.489Z,210.50
2018-04-15T00:53:13.008Z,225.47
2018-04-15T00:55:40.492Z,229.53
2018-04-15T00:58:08.077Z,232.83
2018-04-15T01:00:35.596Z,245.10
2018-04-15T01:03:03.105Z,247.87
2018-04-15T01:05:30.612Z,287.50
2018-04-15T01:07:58.098Z,251.33
2018-04-15T01:10:25.613Z,255.07
2018-04-15T01:12:53.370Z,243.40
2018-04-15T01:15:20.846Z,207.73
2018-04-15T01:17:48.386Z,266.13
2018-04-15T01:20:15.867Z,237.13
2018-04-15T01:22:43.337Z,227.37
2018-04-15T01:25:10.796Z,236.47
2018-04-15T01:27:38.309Z,218.63
2018-04-15T01:30:05.780Z,206.50
2018-04-15T01:32:33.282Z,219.03
2018-04-15T01:35:00.830Z,239.43
2018-04-15T01:37:28.332Z,231.20
2018-04-15T01:39:55.824Z,203.00
2018-04-15T01:42:23.305Z,205.23
2018-04-15T01:44:50.814Z,218.23
2018-04-15T01:47:18.318Z,184.63
2018-04-15T01:49:46.012Z,194.07
2018-04-15T01:52:13.515Z,178.57
2018-04-15T01:54:40.985Z,184.80
2018-04-15T01:57:08.463Z,167.27
2018-04-15T01:59:36.044Z,167.03
2018-04-15T02:02:03.503Z,177.67
2018-04-15T02:04:31.061Z,165.73
2018-04-15T02:06:58.620Z,171.67
2018-04-15T02:09:26.117Z,199.00
2018-04-15T02:11:53.602Z,213.83
2018-04-15T02:14:21.058Z,217.07
2018-04-15T02:16:48.652Z,222.27
2018-04-15T02:19:16.149Z,209.07
2018-04-15T02:21:43.632Z,211.47
2018-04-15T02:24:11.130Z,190.57
2018-04-15T02:26:38.603Z,172.73
2018-04-15T02:29:06.076Z,149.47
2018-04-15T02:31:33.570Z,167.47
2018-04-15T02:34:01.061Z,164.23
2018-04-15T02:36:28.519Z,153.60
2018-04-15T02:38:56.039Z,144.37
2018-04-15T02:41:23.554Z,106.63
2018-04-15T02:43:51.100Z,85.60
2018-04-15T02:46:18.584Z,80.80
2018-04-15T02:48:46.052Z,87.17
2018-04-15T02:51:13.513Z,84.33
2018-04-15T02:53:41.010Z,99.00
2018-04-15T02:56:08.473Z,85.00
2018-04-15T02:58:35.979Z,90.60
2018-04-15T03:01:03.433Z,91.97
2018-04-15T03:03:30.940Z,95.67
2018-04-15T03:05:58.443Z,95.13
2018-04-15T03:08:25.996Z,109.20
2018-04-15T03:10:53.485Z,103.13
2018-04-15T03:13:20.973Z,98.40
2018-04-15T03:15:48.469Z,92.03
2018-04-15T03:18:15.940Z,100.10
2018-04-15T03:20:43.397Z,85.23
2018-04-15T03:23:10.891Z,97.87
2018-04-15T03:25:38.352Z,100.83
2018-04-15T03:28:05.807Z,99.83
2018-04-15T03:30:33.381Z,89.60
2018-04-15T03:33:00.896Z,97.70
2018-04-15T03:35:28.500Z,89.40
2018-04-15T03:37:55.997Z,87.53
2018-04-15T03:40:23.472Z,98.37
2018-04-15T03:42:51.450Z,93.63
2018-04-15T03:45:18.912Z,93.13
2018-04-15T03:47:46.451Z,94.00
2018-04-15T03:50:13.948Z,87.33
2018-04-15T03:52:41.419Z,99.43
2018-04-15T03:55:08.899Z,84.10
2018-04-15T03:57:36.388Z,92.57
2018-04-15T04:00:03.875Z,76.93
2018-04-15T04:02:31.357Z,78.63
2018-04-15T04:04:58.859Z,93.77
2018-04-15T04:07:26.455Z,92.60
2018-04-15T04:09:53.930Z,94.07
2018-04-15T04:12:21.445Z,91.03
2018-04-15T04:14:48.916Z,96.30
2018-04-15T04:17:16.404Z,88.90
2018-04-15T04:19:55.761Z,95.97
2018-04-15T04:22:35.031Z,80.87
2018-04-15T04:25:15.420Z,90.43
2018-04-15T04:27:42.882Z,78.63
2018-04-15T04:30:10.349Z,85.43
2018-04-15T04:32:37.824Z,91.20
2018-04-15T04:35:05.317Z,88.07
2018-04-15T04:37:32.891Z,80.80
2018-04-15T04:40:00.388Z,94.27
2018-04-15T04:42:27.907Z,85.73
2018-04-15T04:44:55.388Z,83.13
2018-04-15T04:47:22.917Z,79.30
2018-04-15T04:49:50.381Z,85.33
2018-04-15T04:52:17.848Z,78.73
2018-04-15T04:54:45.348Z,75.13
2018-04-15T04:57:12.836Z,81.63
2018-04-15T04:59:40.348Z,73.13
2018-04-15T05:02:12.791Z,71.30
2018-04-15T05:04:40.272Z,72.37
2018-04-15T05:07:07.851Z,68.63
2018-04-15T05:09:35.312Z,61.10
2018-04-15T05:12:02.767Z,71.93
2018-04-15T05:14:30.286Z,69.97
2018-04-15T05:16:57.739Z,67.20
2018-04-15T05:19:25.248Z,71.73
2018-04-15T05:21:52.750Z,64.80
2018-04-15T05:24:20.281Z,69.57
2018-04-15T05:26:47.814Z,69.73
2018-04-15T05:29:15.349Z,68.50
2018-04-15T05:31:42.845Z,68.30
2018-04-15T05:34:10.349Z,69.13
2018-04-15T05:36:37.903Z,64.87
2018-04-15T05:39:06.185Z,57.10
2018-04-15T05:41:33.783Z,62.70
2018-04-15T05:44:01.304Z,61.07
2018-04-15T05:46:28.880Z,57.53
2018-04-15T05:48:56.424Z,62.77
2018-04-15T05:51:23.885Z,58.30
2018-04-15T05:53:51.512Z,62.47
2018-04-15T05:56:19.029Z,61.67
2018-04-15T05:58:46.525Z,57.23
2018-04-15T06:01:14.021Z,56.87
2018-04-15T06:03:41.553Z,54.33
2018-04-15T06:06:09.054Z,44.97
2018-04-15T06:08:36.581Z,52.90
2018-04-15T06:11:04.107Z,55.57
2018-04-15T06:13:31.559Z,52.80
2018-04-15T06:15:59.063Z,59.53
2018-04-15T06:18:26.537Z,48.37
2018-04-15T06:20:54.044Z,48.57
2018-04-15T06:23:21.532Z,47.57
2018-04-15T06:25:49.020Z,53.37
2018-04-15T06:28:16.576Z,67.80
2018-04-15T06:30:44.050Z,43.27
2018-04-15T06:33:11.510Z,54.00
2018-04-15T06:35:38.970Z,47.83
2018-04-15T06:38:06.445Z,48.13
2018-04-15T06:40:33.943Z,43.43
2018-04-15T06:43:01.400Z,43.17
2018-04-15T06:45:28.899Z,44.03
2018-04-15T06:47:56.357Z,44.53
2018-04-15T06:50:23.818Z,48.47
2018-04-15T06:52:51.307Z,43.30
2018-04-15T06:55:18.778Z,41.53
2018-04-15T06:57:46.288Z,46.77
2018-04-15T07:00:13.800Z,39.93
2018-04-15T07:02:41.301Z,40.23
2018-04-15T07:05:08.765Z,36.20
2018-04-15T07:07:36.224Z,47.07
2018-04-15T07:10:03.754Z,39.63
2018-04-15T07:12:31.223Z,35.03
2018-04-15T07:14:58.751Z,35.13
2018-04-15T07:17:26.228Z,34.63
2018-04-15T07:19:53.683Z,35.13
2018-04-15T07:22:21.244Z,27.50
2018-04-15T07:24:48.788Z,33.40
2018-04-15T07:27:16.371Z,34.60
2018-04-15T07:29:43.844Z,33.30
2018-04-15T07:32:11.315Z,29.93
2018-04-15T07:34:38.836Z,29.73
2018-04-15T07:37:06.300Z,30.10
2018-04-15T07:39:33.809Z,28.27
2018-04-15T07:42:01.316Z,29.03
2018-04-15T07:44:28.805Z,28.10
2018-04-15T07:46:56.316Z,25.20
2018-04-15T07:49:23.777Z,23.67
2018-04-15T07:51:51.274Z,19.60
2018-04-15T07:54:18.799Z,30.07
2018-04-15T07:56:46.264Z,28.03
2018-04-15T07:59:13.723Z,25.00
2018-04-15T08:01:41.201Z,23.43
2018-04-15T08:04:08.685Z,21.40
2018-04-15T08:06:36.223Z,31.47
2018-04-15T08:09:03.749Z,22.23
2018-04-15T08:11:31.239Z,20.03
2018-04-15T08:13:58.724Z,23.27
2018-04-15T08:16:26.224Z,21.90
2018-04-15T08:18:53.756Z,23.80
2018-04-15T08:21:21.263Z,20.43
2018-04-15T08:23:48.783Z,18.90
2018-04-15T08:26:16.875Z,17.67
2018-04-15T08:28:44.452Z,17.23
2018-04-15T08:31:12.071Z,19.40
2018-04-15T08:33:39.600Z,17.60
2018-04-15T08:36:07.147Z,17.60
2018-04-15T08:38:34.632Z,29.93
2018-04-15T08:41:02.115Z,20.07
2018-04-15T08:43:29.591Z,13.20
2018-04-15T08:45:57.047Z,16.40
2018-04-15T08:48:24.614Z,11.80
2018-04-15T08:50:52.122Z,15.43
2018-04-15T08:53:19.604Z,18.90
2018-04-15T08:55:47.079Z,13.27
2018-04-15T08:58:14.563Z,18.23
2018-04-15T09:00:42.063Z,13.37
2018-04-15T09:03:09.596Z,11.30
2018-04-15T09:05:37.099Z,9.73
2018-04-15T09:08:04.582Z,11.63
2018-04-15T09:10:32.133Z,11.63
2018-04-15T09:12:59.624Z,10.50
2018-04-15T09:15:27.077Z,13.40
2018-04-15T09:17:54.590Z,17.70
2018-04-15T09:20:22.084Z,13.40
2018-04-15T09:22:49.548Z,15.60
2018-04-15T09:25:17.011Z,13.20
2018-04-15T09:27:44.500Z,27.30
2018-04-15T09:30:12.049Z,11.80
2018-04-15T09:32:39.496Z,9.13
2018-04-15T09:35:06.974Z,9.80
2018-04-15T09:37:34.475Z,9.43
2018-04-15T09:40:02.000Z,13.00
2018-04-15T09:42:29.494Z,16.97
2018-04-15T09:44:57.077Z,11.33
2018-04-15T09:47:24.640Z,10.67
2018-04-15T09:49:52.162Z,12.10
2018-04-15T09:52:19.615Z,9.83
2018-04-15T09:54:47.108Z,14.20
2018-04-15T09:57:14.624Z,10.07
2018-04-15T09:59:42.123Z,8.63
2018-04-15T10:02:09.631Z,8.73
2018-04-15T10:04:37.096Z,9.07
2018-04-15T10:07:04.636Z,9.93
2018-04-15T10:09:32.095Z,7.60
2018-04-15T10:11:59.579Z,11.17
2018-04-15T10:14:27.081Z,9.60
2018-04-15T10:16:54.620Z,11.60
2018-04-15T10:19:22.119Z,11.00
2018-04-15T10:21:49.603Z,8.93
2018-04-15T10:24:17.078Z,9.67
2018-04-15T10:26:44.610Z,6.77
2018-04-15T10:29:12.088Z,8.13
2018-04-15T10:31:39.592Z,8.13
2018-04-15T10:34:07.111Z,13.83
2018-04-15T10:36:34.622Z,8.10
2018-04-15T10:39:02.162Z,8.20
2018-04-15T10:41:29.676Z,5.33
2018-04-15T10:43:57.173Z,7.97
2018-04-15T10:46:24.635Z,8.73
2018-04-15T10:48:52.116Z,5.97
2018-04-15T10:51:19.582Z,7.03
2018-04-15T10:53:47.046Z,8.33
2018-04-15T10:56:14.589Z,7.40
2018-04-15T10:58:42.095Z,10.77
2018-04-15T11:01:09.665Z,9.17
2018-04-15T11:03:37.197Z,7.50
2018-04-15T11:06:04.646Z,9.87
2018-04-15T11:08:32.120Z,8.97
2018-04-15T11:10:59.626Z,11.90
2018-04-15T11:13:27.085Z,11.10
2018-04-15T11:15:54.619Z,10.27
2018-04-15T11:18:22.112Z,4.47
2018-04-15T11:20:49.641Z,4.93
2018-04-15T11:23:17.115Z,8.57
2018-04-15T11:25:44.579Z,8.70
2018-04-15T11:28:12.049Z,4.00
2018-04-15T11:30:39.542Z,4.13
2018-04-15T11:33:06.997Z,5.97
2018-04-15T11:35:34.580Z,4.27
2018-04-15T11:38:02.133Z,7.80
2018-04-15T11:40:29.617Z,6.13
2018-04-15T11:42:57.124Z,6.73
2018-04-15T11:45:24.630Z,6.03
2018-04-15T11:47:52.141Z,4.40
2018-04-15T11:50:19.610Z,6.10
2018-04-15T11:52:47.201Z,7.60
2018-04-15T11:55:14.663Z,5.30
2018-04-15T11:57:42.128Z,4.80
2018-04-15T12:00:09.636Z,6.73
2018-04-15T12:02:37.083Z,3.47
2018-04-15T12:05:04.535Z,4.73
2018-04-15T12:07:32.024Z,5.50
2018-04-15T12:09:59.480Z,3.30
2018-04-15T12:12:26.985Z,3.57
2018-04-15T12:14:54.463Z,5.93
2018-04-15T12:17:21.950Z,4.00
2018-04-15T12:19:49.396Z,2.67
2018-04-15T12:22:16.870Z,4.03
2018-04-15T12:24:44.421Z,9.23
2018-04-15T12:27:12.027Z,6.53
2018-04-15T12:29:39.528Z,3.87
2018-04-15T12:32:06.985Z,3.20
2018-04-15T12:34:34.482Z,4.67
2018-04-15T12:37:01.939Z,9.50
2018-04-15T12:39:29.413Z,7.10
2018-04-15T12:41:56.908Z,4.57
2018-04-15T12:44:24.374Z,6.00
2018-04-15T12:46:51.825Z,4.60
2018-04-15T12:49:19.377Z,2.37
2018-04-15T12:51:46.865Z,3.60
2018-04-15T12:54:14.356Z,3.77
2018-04-15T12:56:41.913Z,4.73
2018-04-15T12:59:09.552Z,4.23
2018-04-15T13:01:36.992Z,5.87
2018-04-15T13:04:04.576Z,4.47
2018-04-15T13:06:32.090Z,6.80
2018-04-15T13:08:59.603Z,6.53
2018-04-15T13:11:27.108Z,8.23
2018-04-15T13:13:54.563Z,13.90
2018-04-15T13:16:22.085Z,8.57
2018-04-15T13:18:49.566Z,6.87
2018-04-15T13:21:17.028Z,4.50
2018-04-15T13:23:44.527Z,6.57
2018-04-15T13:26:12.014Z,8.83
2018-04-15T13:28:39.457Z,4.77
2018-04-15T13:31:06.981Z,5.80
2018-04-15T13:33:34.495Z,6.30
2018-04-15T13:36:01.955Z,6.67
2018-04-15T13:38:29.497Z,3.70
2018-04-15T13:40:56.996Z,6.33
2018-04-15T13:43:24.517Z,8.53
2018-04-15T13:45:51.986Z,8.10
2018-04-15T13:48:19.476Z,3.60
2018-04-15T13:50:46.972Z,4.30
2018-04-15T13:53:14.529Z,5.53
2018-04-15T13:55:42.010Z,5.60
2018-04-15T13:58:09.502Z,12.00
2018-04-15T14:00:36.990Z,4.27
2018-04-15T14:03:04.487Z,5.67
2018-04-15T14:05:32.006Z,12.90
2018-04-15T14:07:59.517Z,4.90
2018-04-15T14:10:27.003Z,5.83
2018-04-15T14:12:54.459Z,9.43
2018-04-15T14:15:21.970Z,7.53
2018-04-15T14:17:49.426Z,4.97
2018-04-15T14:20:16.913Z,7.00
2018-04-15T14:22:44.408Z,6.50
2018-04-15T14:25:11.990Z,4.57
2018-04-15T14:27:39.554Z,12.67
2018-04-15T14:30:07.057Z,8.00
2018-04-15T14:32:34.512Z,5.30
2018-04-15T14:35:02.042Z,10.43
2018-04-15T14:37:29.523Z,7.03
2018-04-15T14:39:57.000Z,5.07
2018-04-15T14:42:24.477Z,10.90
2018-04-15T14:44:51.989Z,5.20
2018-04-15T14:47:19.502Z,12.73
2018-04-15T14:49:46.972Z,7.87
2018-04-15T14:52:14.503Z,9.20
2018-04-15T14:54:41.955Z,5.20
2018-04-15T14:57:09.403Z,7.93
2018-04-15T14:59:36.864Z,6.43
2018-04-15T15:02:04.363Z,5.70
2018-04-15T15:04:31.831Z,8.53
2018-04-15T15:06:59.287Z,4.90
2018-04-15T15:09:26.809Z,14.77
2018-04-15T15:11:54.358Z,8.17
2018-04-15T15:14:22.042Z,6.20
2018-04-15T15:16:49.609Z,19.77
2018-04-15T15:19:17.172Z,9.63
2018-04-15T15:21:44.644Z,6.17
2018-04-15T15:24:12.115Z,7.40
2018-04-15T15:26:39.599Z,9.03
2018-04-15T15:29:07.112Z,11.00
2018-04-15T15:31:34.613Z,4.40
2018-04-15T15:34:02.067Z,5.33
2018-04-15T15:36:29.686Z,10.93
2018-04-15T15:38:57.142Z,4.63
2018-04-15T15:41:24.665Z,8.30
2018-04-15T15:43:52.119Z,7.37
2018-04-15T15:46:19.679Z,7.63
2018-04-15T15:48:47.209Z,5.67
2018-04-15T15:51:14.672Z,4.90
2018-04-15T15:53:42.120Z,4.40
2018-04-15T15:56:09.595Z,9.23
2018-04-15T15:58:37.065Z,6.17
2018-04-15T16:01:04.657Z,13.73
2018-04-15T16:03:32.107Z,9.10
2018-04-15T16:05:59.583Z,6.33
2018-04-15T16:08:27.113Z,8.70
2018-04-15T16:10:54.813Z,8.07
2018-04-15T16:13:22.340Z,8.33
2018-04-15T16:15:49.841Z,7.47
2018-04-15T16:18:17.376Z,3.40
2018-04-15T16:20:44.925Z,11.70
2018-04-15T16:23:12.478Z,7.87
2018-04-15T16:25:39.964Z,5.60
2018-04-15T16:28:07.411Z,6.03
2018-04-15T16:30:34.885Z,5.70
2018-04-15T16:33:02.390Z,7.73
2018-04-15T16:35:29.856Z,9.93
2018-04-15T16:37:57.400Z,8.40
2018-04-15T16:40:24.901Z,10.47
2018-04-15T16:42:52.387Z,9.53
2018-04-15T16:45:19.927Z,7.03
2018-04-15T16:47:47.413Z,15.40
2018-04-15T16:50:14.867Z,10.30
2018-04-15T16:52:42.386Z,7.73
2018-04-15T16:55:09.872Z,12.63
2018-04-15T16:57:37.344Z,9.80
2018-04-15T17:00:04.850Z,7.93
2018-04-15T17:02:32.375Z,6.60
2018-04-15T17:04:59.853Z,8.93
2018-04-15T17:07:27.336Z,14.83
2018-04-15T17:09:54.881Z,9.53
2018-04-15T17:12:22.343Z,8.03
2018-04-15T17:14:49.825Z,16.63
2018-04-15T17:17:17.309Z,11.57
2018-04-15T17:19:44.830Z,8.33
2018-04-15T17:22:12.300Z,10.10
2018-04-15T17:24:39.891Z,12.07
2018-04-15T17:27:07.315Z,15.10
2018-04-15T17:29:34.912Z,10.00
2018-04-15T17:32:02.406Z,7.27
2018-04-15T17:34:29.995Z,8.33
2018-04-15T17:36:57.761Z,6.60
2018-04-15T17:39:25.238Z,9.90
2018-04-15T17:41:52.745Z,16.20
2018-04-15T17:44:20.208Z,17.13
2018-04-15T17:46:47.705Z,13.90
2018-04-15T17:49:15.200Z,14.40
2018-04-15T17:51:42.711Z,15.57
2018-04-15T17:54:10.258Z,16.73
2018-04-15T17:56:37.722Z,17.33
2018-04-15T17:59:05.220Z,14.90
2018-04-15T18:01:32.695Z,17.57
2018-04-15T18:04:00.209Z,20.87
2018-04-15T18:06:27.727Z,11.73
2018-04-15T18:08:55.233Z,18.07
2018-04-15T18:11:22.756Z,15.50
2018-04-15T18:13:50.302Z,13.00
2018-04-15T18:16:17.740Z,25.47
2018-04-15T18:18:45.239Z,15.30
2018-04-15T18:21:12.706Z,21.90
2018-04-15T18:23:40.317Z,15.70
2018-04-15T18:26:07.792Z,12.03
2018-04-15T18:28:35.391Z,13.60
2018-04-15T18:31:02.905Z,19.00
2018-04-15T18:33:30.397Z,22.33
2018-04-15T18:35:57.948Z,19.17
2018-04-15T18:38:25.496Z,26.70
2018-04-15T18:40:53.025Z,23.10
2018-04-15T18:43:20.491Z,19.57
2018-04-15T18:45:48.020Z,19.47
2018-04-15T18:48:15.483Z,29.73
2018-04-15T18:50:42.945Z,24.27
2018-04-15T18:53:10.441Z,19.63
2018-04-15T18:55:37.935Z,15.30
2018-04-15T18:58:05.445Z,19.63
2018-04-15T19:00:32.950Z,39.63
2018-04-15T19:03:00.416Z,56.53
2018-04-15T19:05:28.047Z,25.33
2018-04-15T19:07:55.579Z,22.10
2018-04-15T19:10:23.065Z,15.83
2018-04-15T19:12:51.109Z,18.33
2018-04-15T19:15:18.638Z,20.87
2018-04-15T19:17:46.142Z,23.53
2018-04-15T19:20:13.625Z,20.37
2018-04-15T19:22:41.255Z,17.27
2018-04-15T19:25:08.719Z,16.43
2018-04-15T19:27:36.213Z,20.17
2018-04-15T19:30:03.713Z,20.53
2018-04-15T19:32:31.343Z,14.83
2018-04-15T19:34:58.901Z,17.70
2018-04-15T19:37:26.376Z,12.00
2018-04-15T19:39:53.865Z,16.90
2018-04-15T19:42:21.361Z,14.27
2018-04-15T19:44:48.873Z,20.80
2018-04-15T19:47:16.440Z,19.63
2018-04-15T19:49:44.033Z,19.50
2018-04-15T19:52:11.555Z,21.00
2018-04-15T19:54:39.084Z,26.17
2018-04-15T19:57:06.690Z,16.37
2018-04-15T19:59:34.285Z,13.13
2018-04-15T20:02:01.822Z,10.30
2018-04-15T20:04:29.314Z,17.40
2018-04-15T20:06:56.845Z,17.70
2018-04-15T20:09:24.352Z,16.53
2018-04-15T20:11:51.842Z,20.00
2018-04-15T20:14:19.413Z,16.03
2018-04-15T20:16:46.919Z,12.43
2018-04-15T20:19:14.478Z,10.53
2018-04-15T20:21:41.957Z,19.27
2018-04-15T20:24:09.449Z,11.53
2018-04-15T20:26:36.899Z,12.53
2018-04-15T20:29:04.421Z,12.60
2018-04-15T20:31:31.896Z,12.57
2018-04-15T20:33:59.382Z,18.07
2018-04-15T20:36:26.936Z,14.37
2018-04-15T20:38:54.388Z,12.83
2018-04-15T20:41:21.871Z,12.93
2018-04-15T20:43:49.495Z,16.23
2018-04-15T20:46:16.981Z,12.17
2018-04-15T20:48:44.569Z,12.53
2018-04-15T20:51:12.025Z,19.03
2018-04-15T20:53:39.509Z,10.17
2018-04-15T20:56:06.992Z,10.37
2018-04-15T20:58:34.489Z,9.70
2018-04-15T21:01:01.968Z,12.13
2018-04-15T21:03:29.467Z,11.53
2018-04-15T21:05:56.949Z,12.90
2018-04-15T21:08:24.430Z,9.67
2018-04-15T21:10:51.910Z,8.07
2018-04-15T21:13:19.409Z,10.70
2018-04-15T21:15:46.972Z,17.13
2018-04-15T21:18:14.456Z,11.87
2018-04-15T21:20:41.932Z,10.67
2018-04-15T21:23:09.417Z,16.40
2018-04-15T21:25:36.929Z,13.13
2018-04-15T21:28:04.497Z,18.03
2018-04-15T21:30:31.960Z,18.17
2018-04-15T21:32:59.420Z,14.87
2018-04-15T21:35:26.903Z,13.80
2018-04-15T21:37:54.360Z,16.87
2018-04-15T21:40:21.833Z,14.80
2018-04-15T21:42:49.360Z,24.83
2018-04-15T21:45:16.922Z,18.60
2018-04-15T21:47:44.421Z,15.80
2018-04-15T21:50:11.903Z,19.47
2018-04-15T21:52:39.397Z,17.30
2018-04-15T21:55:06.891Z,17.67
2018-04-15T21:57:34.409Z,17.33
2018-04-15T22:00:01.891Z,20.20
2018-04-15T22:02:29.352Z,18.50
2018-04-15T22:04:56.842Z,32.13
2018-04-15T22:07:24.352Z,16.37
2018-04-15T22:09:51.837Z,21.43
2018-04-15T22:12:19.752Z,18.33
2018-04-15T22:14:47.303Z,17.10
2018-04-15T22:17:14.763Z,18.13
2018-04-15T22:19:42.270Z,18.20
2018-04-15T22:22:09.867Z,17.10
2018-04-15T22:24:37.359Z,18.80
2018-04-15T22:27:04.976Z,16.53
2018-04-15T22:29:32.465Z,17.63
2018-04-15T22:32:00.013Z,17.97
2018-04-15T22:34:27.524Z,22.20
2018-04-15T22:36:55.044Z,17.97
2018-04-15T22:39:22.528Z,16.37
2018-04-15T22:41:50.028Z,18.03
2018-04-15T22:44:17.499Z,16.50
2018-04-15T22:46:45.079Z,20.67
2018-04-15T22:49:18.228Z,19.40
2018-04-15T22:51:45.743Z,21.10
2018-04-15T22:54:13.243Z,17.90
2018-04-15T22:56:43.566Z,20.67
2018-04-15T22:59:11.088Z,17.10
2018-04-15T23:01:38.554Z,25.87
2018-04-15T23:04:06.058Z,18.87
2018-04-15T23:06:33.565Z,17.90
2018-04-15T23:09:01.033Z,20.40
2018-04-15T23:11:28.545Z,22.70
2018-04-15T23:13:56.043Z,21.67
2018-04-15T23:16:23.509Z,19.70
2018-04-15T23:18:50.969Z,26.40
2018-04-15T23:21:18.476Z,22.93
2018-04-15T23:23:45.973Z,21.67
2018-04-15T23:26:13.439Z,21.80
2018-04-15T23:28:41.045Z,24.53
2018-04-15T23:31:08.509Z,24.60
2018-04-15T23:33:36.000Z,22.73
2018-04-15T23:36:03.465Z,27.63
2018-04-15T23:38:30.989Z,23.07
2018-04-15T23:40:58.486Z,27.13
2018-04-15T23:43:26.076Z,23.77
2018-04-15T23:45:53.533Z,28.67
2018-04-15T23:48:21.027Z,28.00
2018-04-15T23:50:48.519Z,30.00
2018-04-15T23:53:15.975Z,25.20
2018-04-15T23:55:43.434Z,37.33
2018-04-15T23:58:10.940Z,29.53
